createdAt,value
2018-05-29T11:26:43.095Z,4.00
2018-05-29T11:34:04.694Z,3.90
2018-05-29T11:36:32.206Z,3.65
2018-05-29T11:41:26.759Z,3.90
2018-05-29T11:58:36.699Z,3.43
2018-05-29T12:05:59.152Z,4.07
2018-05-29T12:20:43.652Z,3.60
2018-05-29T12:23:11.160Z,4.15
2018-05-29T12:25:38.678Z,3.87
2018-05-29T12:28:06.208Z,3.75
2018-05-29T12:30:33.705Z,3.62
2018-05-29T12:35:28.310Z,3.42
2018-05-29T12:37:55.884Z,3.60
2018-05-29T12:40:23.438Z,3.90
2018-05-29T12:42:51.087Z,3.80
2018-05-29T12:45:18.635Z,3.30
2018-05-29T12:47:46.890Z,3.40
2018-05-29T12:50:14.957Z,3.30
2018-05-29T12:55:09.583Z,3.50
2018-05-29T12:57:37.138Z,3.53
2018-05-29T13:00:04.645Z,3.35
2018-05-29T13:02:32.186Z,3.30
2018-05-29T13:04:59.710Z,3.30
2018-05-29T13:07:27.207Z,3.53
2018-05-29T13:09:54.700Z,3.33
2018-05-29T13:12:22.248Z,3.50
2018-05-29T13:14:49.754Z,3.40
2018-05-29T13:17:17.275Z,3.50
2018-05-29T13:19:44.834Z,3.30
2018-05-29T13:22:12.347Z,3.40
2018-05-29T13:24:39.846Z,3.33
2018-05-29T13:27:07.456Z,3.35
2018-05-29T13:29:35.014Z,2.92
2018-05-29T13:32:02.558Z,3.00
2018-05-29T13:34:30.288Z,3.12
2018-05-29T13:36:58.660Z,3.12
2018-05-29T13:39:26.977Z,3.17
2018-05-29T13:41:54.540Z,2.72
2018-05-29T13:44:22.040Z,3.10
2018-05-29T13:46:49.571Z,3.10
2018-05-29T13:49:17.161Z,3.00
2018-05-29T13:51:46.146Z,3.15
2018-05-29T13:54:13.733Z,2.83
2018-05-29T13:56:41.303Z,2.80
2018-05-29T13:59:08.808Z,2.90
2018-05-29T14:01:36.406Z,3.00
2018-05-29T14:04:05.122Z,2.95
2018-05-29T14:06:32.771Z,2.92
2018-05-29T14:09:00.308Z,2.80
2018-05-29T14:11:27.875Z,2.90
2018-05-29T14:13:55.382Z,2.95
2018-05-29T14:16:22.900Z,3.05
2018-05-29T14:18:50.453Z,2.90
2018-05-29T14:21:18.034Z,2.80
2018-05-29T14:23:45.606Z,3.05
2018-05-29T14:26:13.974Z,2.80
2018-05-29T14:28:41.494Z,3.20
2018-05-29T14:31:09.194Z,2.92
2018-05-29T14:33:36.905Z,3.10
2018-05-29T14:36:04.431Z,3.10
2018-05-29T14:38:32.199Z,3.05
2018-05-29T14:40:59.790Z,3.35
2018-05-29T14:43:27.467Z,2.78
2018-05-29T14:45:54.970Z,2.92
2018-05-29T14:48:22.502Z,3.10
2018-05-29T14:50:50.027Z,3.25
2018-05-29T14:53:17.537Z,3.10
2018-05-29T14:55:45.092Z,3.15
2018-05-29T14:58:12.584Z,3.12
2018-05-29T15:00:40.079Z,3.10
2018-05-29T15:03:07.629Z,3.08
2018-05-29T15:05:35.276Z,3.00
2018-05-29T15:08:02.782Z,3.20
2018-05-29T15:10:30.383Z,3.42
2018-05-29T15:12:57.889Z,3.03
2018-05-29T15:15:25.461Z,3.08
2018-05-29T15:17:53.006Z,2.97
2018-05-29T15:20:20.579Z,3.30
2018-05-29T15:22:48.083Z,2.90
2018-05-29T15:25:15.594Z,3.22
2018-05-29T15:27:43.092Z,2.90
2018-05-29T15:30:10.594Z,3.10
2018-05-29T15:32:38.134Z,3.28
2018-05-29T15:35:05.635Z,3.28
2018-05-29T15:37:33.135Z,2.97
2018-05-29T15:40:00.682Z,3.20
2018-05-29T15:42:28.175Z,3.83
2018-05-29T15:44:55.668Z,3.00
2018-05-29T15:47:23.194Z,3.50
2018-05-29T15:49:50.687Z,3.35
2018-05-29T15:52:19.011Z,3.42
2018-05-29T15:54:47.300Z,3.30
2018-05-29T15:57:16.812Z,3.17
2018-05-29T15:59:44.523Z,3.08
2018-05-29T16:02:13.020Z,3.30
2018-05-29T16:04:40.510Z,3.10
2018-05-29T16:07:08.014Z,2.90
2018-05-29T16:09:41.887Z,2.90
2018-05-29T16:12:09.395Z,2.95
2018-05-29T16:14:36.883Z,2.90
2018-05-29T16:17:04.403Z,3.10
2018-05-29T16:19:32.682Z,3.00
2018-05-29T16:22:00.230Z,3.15
2018-05-29T16:24:27.791Z,2.90
2018-05-29T16:26:55.295Z,3.03
2018-05-29T16:29:22.788Z,3.25
2018-05-29T16:31:50.319Z,2.92
2018-05-29T16:34:17.821Z,2.78
2018-05-29T16:36:45.330Z,2.70
2018-05-29T16:39:12.847Z,3.03
2018-05-29T16:41:40.342Z,2.92
2018-05-29T16:44:07.865Z,2.90
2018-05-29T16:46:35.468Z,3.25
2018-05-29T16:49:03.810Z,2.75
2018-05-29T16:51:31.272Z,2.70
2018-05-29T16:53:59.412Z,2.83
2018-05-29T16:56:26.973Z,2.83
2018-05-29T16:58:54.437Z,3.22
2018-05-29T17:01:21.959Z,2.72
2018-05-29T17:03:49.479Z,2.80
2018-05-29T17:06:16.978Z,3.30
2018-05-29T17:08:45.319Z,2.85
2018-05-29T17:11:13.973Z,2.87
2018-05-29T17:13:41.483Z,2.65
2018-05-29T17:16:09.027Z,2.92
2018-05-29T17:18:36.539Z,2.80
2018-05-29T17:21:04.414Z,2.60
2018-05-29T17:23:31.951Z,2.87
2018-05-29T17:26:00.234Z,3.10
2018-05-29T17:28:27.928Z,2.83
2018-05-29T17:30:57.519Z,2.90
2018-05-29T17:33:25.039Z,3.10
2018-05-29T17:35:52.544Z,3.10
2018-05-29T17:38:20.145Z,2.90
2018-05-29T17:40:48.369Z,3.33
2018-05-29T17:43:16.646Z,3.10
2018-05-29T17:45:44.218Z,3.08
2018-05-29T17:48:11.786Z,3.80
2018-05-29T17:50:40.437Z,3.40
2018-05-29T17:53:07.962Z,3.72
2018-05-29T17:55:35.459Z,3.60
2018-05-29T17:58:02.955Z,3.55
2018-05-29T18:00:30.494Z,3.78
2018-05-29T18:02:57.992Z,3.92
2018-05-29T18:05:25.539Z,3.83
2018-05-29T18:07:53.158Z,3.85
2018-05-29T18:10:20.646Z,3.97
2018-05-29T18:12:48.910Z,3.90
2018-05-29T18:15:16.472Z,3.80
2018-05-29T18:17:44.082Z,3.67
2018-05-29T18:20:11.603Z,4.32
2018-05-29T18:22:40.067Z,4.40
2018-05-29T18:25:10.253Z,4.00
2018-05-29T18:27:37.897Z,3.75
2018-05-29T18:30:05.459Z,3.72
2018-05-29T18:32:33.682Z,3.78
2018-05-29T18:35:01.183Z,3.42
2018-05-29T18:37:29.469Z,4.10
2018-05-29T18:39:57.738Z,3.53
2018-05-29T18:42:25.237Z,3.80
2018-05-29T18:44:52.862Z,3.80
2018-05-29T18:47:20.326Z,3.50
2018-05-29T18:49:48.601Z,3.50
2018-05-29T18:52:16.155Z,3.80
2018-05-29T18:54:48.285Z,3.87
2018-05-29T18:57:15.831Z,3.60
2018-05-29T18:59:43.348Z,3.67
2018-05-29T19:02:10.859Z,3.75
2018-05-29T19:04:38.378Z,3.72
2018-05-29T19:07:06.964Z,3.58
2018-05-29T19:09:34.457Z,3.15
2018-05-29T19:12:01.954Z,3.83
2018-05-29T19:14:29.503Z,3.30
2018-05-29T19:16:57.002Z,3.62
2018-05-29T19:19:25.292Z,3.60
2018-05-29T19:21:53.589Z,3.70
2018-05-29T19:24:21.086Z,3.72
2018-05-29T19:26:48.584Z,4.00
2018-05-29T19:29:16.922Z,3.72
2018-05-29T19:31:44.419Z,3.42
2018-05-29T19:34:12.682Z,3.72
2018-05-29T19:36:40.189Z,4.05
2018-05-29T19:39:07.679Z,3.83
2018-05-29T19:41:35.174Z,4.30
2018-05-29T19:44:03.459Z,4.05
2018-05-29T19:46:30.958Z,3.62
2018-05-29T19:48:59.298Z,3.85
2018-05-29T19:51:26.842Z,4.03
2018-05-29T19:53:54.335Z,3.70
2018-05-29T19:56:21.843Z,4.37
2018-05-29T20:03:30.741Z,4.07
2018-05-29T20:05:59.959Z,4.05
2018-05-29T20:08:29.350Z,4.03
2018-05-29T20:10:57.017Z,3.72
2018-05-29T20:13:25.464Z,4.28
2018-05-29T20:15:52.955Z,4.00
2018-05-29T20:18:20.450Z,4.12
2018-05-29T20:20:47.987Z,3.75
2018-05-29T20:23:15.483Z,3.85
2018-05-29T20:25:42.978Z,4.03
2018-05-29T20:28:10.483Z,3.90
2018-05-29T20:30:38.739Z,4.10
2018-05-29T20:33:06.231Z,4.25
2018-05-29T20:35:34.494Z,4.05
2018-05-29T20:38:01.988Z,4.32
2018-05-29T20:40:29.484Z,3.97
2018-05-29T20:42:57.023Z,4.30
2018-05-29T20:45:24.598Z,4.43
2018-05-29T20:47:52.091Z,4.20
2018-05-29T20:50:19.618Z,4.25
2018-05-29T20:52:47.114Z,4.37
2018-05-29T20:55:14.608Z,4.40
2018-05-29T20:57:42.115Z,4.57
2018-05-29T21:00:09.606Z,4.25
2018-05-29T21:02:37.880Z,4.18
2018-05-29T21:05:06.210Z,4.80
2018-05-29T21:07:33.697Z,4.30
2018-05-29T21:10:01.184Z,3.90
2018-05-29T21:12:28.714Z,4.47
2018-05-29T21:14:56.202Z,4.75
2018-05-29T21:17:24.452Z,4.75
2018-05-29T21:19:51.971Z,4.70
2018-05-29T21:22:19.554Z,4.37
2018-05-29T21:24:46.979Z,4.57
2018-05-29T21:27:15.281Z,4.75
2018-05-29T21:29:42.771Z,4.55
2018-05-29T21:32:10.260Z,4.55
2018-05-29T21:34:38.579Z,4.60
2018-05-29T21:37:06.082Z,4.50
2018-05-29T21:39:33.579Z,4.47
2018-05-29T21:42:02.014Z,4.62
2018-05-29T21:44:29.553Z,4.15
2018-05-29T21:46:58.047Z,5.35
2018-05-29T21:49:25.563Z,4.30
2018-05-29T21:51:53.180Z,4.60
2018-05-29T21:54:20.704Z,4.53
2018-05-29T21:56:48.274Z,4.50
2018-05-29T21:59:15.867Z,4.40
2018-05-29T22:01:43.350Z,4.60
2018-05-29T22:04:10.905Z,4.30
2018-05-29T22:06:38.398Z,4.55
2018-05-29T22:09:05.895Z,4.40
2018-05-29T22:11:33.426Z,4.53
2018-05-29T22:14:00.918Z,4.43
2018-05-29T22:16:28.415Z,4.35
2018-05-29T22:18:55.946Z,4.10
2018-05-29T22:21:23.434Z,4.40
2018-05-29T22:23:50.945Z,4.28
2018-05-29T22:26:18.446Z,4.10
2018-05-29T22:28:45.952Z,4.40
2018-05-29T22:31:13.463Z,4.70
2018-05-29T22:33:41.148Z,4.60
2018-05-29T22:36:08.751Z,4.47
2018-05-29T22:38:36.404Z,4.40
2018-05-29T22:41:03.954Z,4.57
2018-05-29T22:43:31.442Z,4.30
2018-05-29T22:45:58.930Z,4.60
2018-05-29T22:48:26.474Z,4.15
2018-05-29T22:50:54.028Z,4.57
2018-05-29T22:53:21.594Z,4.40
2018-05-29T22:55:49.766Z,4.40
2018-05-29T22:58:17.261Z,4.12
2018-05-29T23:00:44.750Z,4.70
2018-05-29T23:03:13.038Z,4.55
2018-05-29T23:05:40.571Z,4.20
2018-05-29T23:08:08.039Z,4.47
2018-05-29T23:10:35.579Z,4.22
2018-05-29T23:13:03.072Z,4.50
2018-05-29T23:15:30.558Z,4.43
2018-05-29T23:17:58.071Z,4.40
2018-05-29T23:20:25.555Z,4.40
2018-05-29T23:22:53.042Z,4.35
2018-05-29T23:25:20.658Z,4.60
2018-05-29T23:27:48.195Z,4.40
2018-05-29T23:30:16.893Z,4.43
2018-05-29T23:32:44.423Z,4.70
2018-05-29T23:35:11.919Z,4.20
2018-05-29T23:37:39.597Z,4.60
2018-05-29T23:40:07.873Z,5.10
2018-05-29T23:42:35.359Z,4.90
2018-05-29T23:45:02.859Z,4.20
2018-05-29T23:47:30.394Z,4.50
2018-05-29T23:49:57.878Z,4.37
2018-05-29T23:52:25.371Z,4.70
2018-05-29T23:54:52.919Z,4.93
2018-05-29T23:57:20.415Z,4.90
2018-05-29T23:59:47.911Z,4.70
